Time;durP1;ratioP1;P1;durP2;ratioP2;P2;SDS_P1;SDS_P2;PMS_P1;PMS_P2;Temp;Humidity;BMP_temperature;BMP_pressure;BME280_temperature;BME280_humidity;BME280_pressure;Samples;Min_cycle;Max_cycle;Signal;HPM_P1;HPM_P2
2023/01/21 00:01:45;;;;;;;5.20;2.60;;;;;;;;;;103028;1334;28376;-36
2023/01/21 00:04:16;;;;;;;4.80;2.50;;;;;;;;;;103501;1327;29570;-35
2023/01/21 00:06:48;;;;;;;5.50;2.90;;;;;;;;;;103540;1327;30181;-36
2023/01/21 00:09:18;;;;;;;5.20;2.60;;;;;;;;;;103552;1327;28266;-35
2023/01/21 00:11:51;;;;;;;5.40;2.60;;;;;;;;;;103553;1327;28090;-36
2023/01/21 00:14:24;;;;;;;6.20;2.80;;;;;;;;;;103042;1333;29864;-36
2023/01/21 00:16:54;;;;;;;5.50;2.80;;;;;;;;;;103053;1334;30503;-36
2023/01/21 00:19:25;;;;;;;5.80;2.60;;;;;;;;;;103038;1332;28811;-36
2023/01/21 00:21:55;;;;;;;4.70;2.80;;;;;;;;;;103040;1332;28084;-35
2023/01/21 00:24:27;;;;;;;5.20;2.70;;;;;;;;;;102845;1327;895167;-36
2023/01/21 00:26:59;;;;;;;5.40;3.10;;;;;;;;;;103545;1328;30229;-36
2023/01/21 00:29:34;;;;;;;5.00;2.60;;;;;;;;;;103565;1327;28752;-35
2023/01/21 00:32:05;;;;;;;4.90;2.60;;;;;;;;;;103551;1328;28174;-35
2023/01/21 00:34:35;;;;;;;5.60;2.90;;;;;;;;;;103099;1334;29535;-36
2023/01/21 00:37:06;;;;;;;5.10;2.70;;;;;;;;;;103045;1334;30561;-36
2023/01/21 00:39:41;;;;;;;4.80;2.60;;;;;;;;;;102832;1333;29210;-35
2023/01/21 00:42:12;;;;;;;5.10;2.70;;;;;;;;;;103071;1334;28297;-36
2023/01/21 00:44:42;;;;;;;4.80;2.60;;;;;;;;;;103402;1327;29604;-36
2023/01/21 00:47:14;;;;;;;5.20;2.80;;;;;;;;;;103560;1327;31810;-36
2023/01/21 00:49:45;;;;;;;5.30;2.70;;;;;;;;;;103566;1328;28712;-37
2023/01/21 00:52:16;;;;;;;4.90;2.80;;;;;;;;;;103559;1327;28100;-37
2023/01/21 00:54:45;;;;;;;4.90;2.60;;;;;;;;;;103182;1334;29595;-37
2023/01/21 00:57:18;;;;;;;4.80;2.50;;;;;;;;;;103028;1333;29962;-37
2023/01/21 00:59:51;;;;;;;4.70;2.60;;;;;;;;;;103082;1334;29175;-37
2023/01/21 01:02:23;;;;;;;5.00;2.40;;;;;;;;;;103057;1334;28326;-37
2023/01/21 01:04:54;;;;;;;4.80;2.50;;;;;;;;;;103287;1327;175834;-37
2023/01/21 01:07:29;;;;;;;4.60;2.50;;;;;;;;;;103591;1327;31775;-37
2023/01/21 01:10:00;;;;;;;4.90;2.60;;;;;;;;;;103549;1327;28725;-38
2023/01/21 01:12:34;;;;;;;4.00;2.20;;;;;;;;;;103566;1327;29137;-37
2023/01/21 01:15:06;;;;;;;5.60;2.40;;;;;;;;;;103192;1328;30021;-37
2023/01/21 01:17:37;;;;;;;4.80;2.70;;;;;;;;;;103062;1333;30150;-37
2023/01/21 01:20:12;;;;;;;4.20;2.30;;;;;;;;;;103129;1333;29107;-37
2023/01/21 01:22:43;;;;;;;4.60;2.50;;;;;;;;;;103122;1334;27934;-37
2023/01/21 01:25:13;;;;;;;4.50;2.40;;;;;;;;;;103304;1334;175832;-37
2023/01/21 01:27:46;;;;;;;4.50;2.30;;;;;;;;;;103662;1328;30109;-37
2023/01/21 01:30:18;;;;;;;4.80;2.50;;;;;;;;;;103637;1328;28758;-37
2023/01/21 01:32:49;;;;;;;4.90;2.50;;;;;;;;;;103648;1328;27924;-37
2023/01/21 01:35:21;;;;;;;4.20;2.10;;;;;;;;;;103209;1333;29532;-37
2023/01/21 01:37:54;;;;;;;4.60;2.00;;;;;;;;;;103020;1333;31574;-37
2023/01/21 01:40:25;;;;;;;4.80;2.30;;;;;;;;;;103060;1334;29091;-36
2023/01/21 01:42:57;;;;;;;4.30;2.10;;;;;;;;;;103064;1333;27769;-37
2023/01/21 01:45:28;;;;;;;4.60;2.30;;;;;;;;;;103374;1328;29660;-37
2023/01/21 01:48:05;;;;;;;4.10;2.00;;;;;;;;;;103619;1328;31590;-37
2023/01/21 01:50:39;;;;;;;3.90;2.10;;;;;;;;;;103626;1328;29034;-37
2023/01/21 01:53:13;;;;;;;4.20;2.20;;;;;;;;;;103638;1328;28164;-37
2023/01/21 01:55:44;;;;;;;4.40;2.20;;;;;;;;;;103237;1333;30083;-37
2023/01/21 01:58:20;;;;;;;4.00;2.00;;;;;;;;;;103059;1333;30601;-38
2023/01/21 02:00:50;;;;;;;4.20;2.00;;;;;;;;;;103104;1333;29110;-37
2023/01/21 02:06:13;;;;;;;3.80;1.80;;;;;;;;;;103488;1327;29853;-37
2023/01/21 02:08:44;;;;;;;4.30;2.00;;;;;;;;;;103607;1328;30290;-37
2023/01/21 02:11:19;;;;;;;4.30;2.10;;;;;;;;;;103673;1327;29115;-37
2023/01/21 02:13:54;;;;;;;4.00;1.90;;;;;;;;;;103416;1328;28216;-37
2023/01/21 02:16:48;;;;;;;3.60;1.80;;;;;;;;;;103176;1333;29596;-38
2023/01/21 02:20:04;;;;;;;3.60;1.90;;;;;;;;;;103076;1334;30270;-37
2023/01/21 02:22:47;;;;;;;3.70;1.70;;;;;;;;;;103041;1333;28996;-39
2023/01/21 02:26:03;;;;;;;3.80;1.70;;;;;;;;;;103217;1334;28121;-39
2023/01/21 02:29:23;;;;;;;4.00;1.90;;;;;;;;;;102880;1333;29485;-39
2023/01/21 02:32:28;;;;;;;4.00;1.90;;;;;;;;;;103199;1332;30219;-39
2023/01/21 02:35:04;;;;;;;3.70;1.90;;;;;;;;;;103202;1332;28723;-39
2023/01/21 02:37:43;;;;;;;3.60;1.70;;;;;;;;;;103347;1331;34065;-35
2023/01/21 02:40:21;;;;;;;3.80;1.80;;;;;;;;;;103371;1331;29618;-36
2023/01/21 02:43:02;;;;;;;3.40;1.80;;;;;;;;;;103361;1331;30224;-36
2023/01/21 02:45:43;;;;;;;3.90;1.80;;;;;;;;;;103330;1331;28919;-36
2023/01/21 02:48:20;;;;;;;3.40;1.50;;;;;;;;;;103255;1331;28074;-37
2023/01/21 02:50:54;;;;;;;3.40;1.70;;;;;;;;;;103041;1334;29635;-38
2023/01/21 02:53:29;;;;;;;3.50;1.60;;;;;;;;;;103023;1334;30222;-37
2023/01/21 02:56:04;;;;;;;4.00;1.60;;;;;;;;;;103160;1328;29540;-38
2023/01/21 02:58:40;;;;;;;5.40;1.70;;;;;;;;;;103690;1327;27848;-37
2023/01/21 03:01:24;;;;;;;4.50;1.70;;;;;;;;;;103649;1328;29524;-37
2023/01/21 03:04:14;;;;;;;3.40;1.60;;;;;;;;;;103650;1327;30390;-37
2023/01/21 03:06:57;;;;;;;3.50;1.50;;;;;;;;;;103286;1328;29543;-38
2023/01/21 03:09:33;;;;;;;3.60;1.70;;;;;;;;;;103046;1334;28038;-37
2023/01/21 03:12:26;;;;;;;3.60;1.70;;;;;;;;;;103013;1334;29987;-37
2023/01/21 03:18:23;;;;;;;3.30;1.50;;;;;;;;;;102636;1336;37476;-37
2023/01/21 03:21:07;;;;;;;3.60;1.60;;;;;;;;;;103474;1327;28070;-37
2023/01/21 03:23:43;;;;;;;3.20;1.60;;;;;;;;;;103585;1327;29713;-37
2023/01/21 03:26:21;;;;;;;3.20;1.50;;;;;;;;;;103540;1327;30240;-37
2023/01/21 03:29:04;;;;;;;3.20;1.40;;;;;;;;;;103035;1334;29158;-37
2023/01/21 03:31:37;;;;;;;2.80;1.40;;;;;;;;;;103041;1333;29415;-37
2023/01/21 03:34:13;;;;;;;3.10;1.50;;;;;;;;;;103079;1334;29775;-37
2023/01/21 03:36:50;;;;;;;3.30;1.50;;;;;;;;;;103122;1327;30532;-37
2023/01/21 03:39:34;;;;;;;3.20;1.40;;;;;;;;;;103601;1327;28878;-37
2023/01/21 03:42:08;;;;;;;3.10;1.40;;;;;;;;;;103587;1328;28021;-37
2023/01/21 03:44:39;;;;;;;3.40;1.50;;;;;;;;;;103565;1327;29499;-37
2023/01/21 03:47:19;;;;;;;3.30;1.40;;;;;;;;;;103411;1328;30350;-37
2023/01/21 03:50:00;;;;;;;3.50;1.30;;;;;;;;;;103083;1334;28958;-36
2023/01/21 03:52:38;;;;;;;3.40;1.50;;;;;;;;;;103053;1333;28181;-37
2023/01/21 03:55:11;;;;;;;2.70;1.20;;;;;;;;;;103053;1341;29705;-38
2023/01/21 03:57:43;;;;;;;2.90;1.30;;;;;;;;;;103190;1328;183742;-37
2023/01/21 04:00:19;;;;;;;3.30;1.50;;;;;;;;;;103546;1327;28888;-37
2023/01/21 04:02:49;;;;;;;3.20;1.40;;;;;;;;;;103575;1327;28203;-37
2023/01/21 04:05:21;;;;;;;2.90;1.30;;;;;;;;;;103568;1327;31095;-37
2023/01/21 04:07:54;;;;;;;3.00;1.40;;;;;;;;;;103326;1327;30420;-37
2023/01/21 04:10:26;;;;;;;3.40;1.40;;;;;;;;;;103084;1333;29018;-37
2023/01/21 04:12:57;;;;;;;3.20;1.40;;;;;;;;;;103063;1333;28021;-37
2023/01/21 04:15:28;;;;;;;2.70;1.10;;;;;;;;;;103054;1333;29790;-37
2023/01/21 04:18:01;;;;;;;2.80;1.30;;;;;;;;;;103223;1331;30250;-37
2023/01/21 04:20:31;;;;;;;3.00;1.30;;;;;;;;;;103560;1327;28978;-37
2023/01/21 04:23:01;;;;;;;3.00;1.30;;;;;;;;;;103573;1328;27779;-37
2023/01/21 04:25:34;;;;;;;2.60;1.10;;;;;;;;;;103536;1328;29851;-37
2023/01/21 04:28:08;;;;;;;2.90;1.30;;;;;;;;;;103363;1334;30141;-37
2023/01/21 04:30:40;;;;;;;2.70;1.30;;;;;;;;;;103054;1333;31398;-38
2023/01/21 04:33:15;;;;;;;2.90;1.20;;;;;;;;;;103038;1334;28047;-37
2023/01/21 04:35:45;;;;;;;2.90;1.10;;;;;;;;;;103064;1334;29874;-38
2023/01/21 04:38:20;;;;;;;2.70;1.20;;;;;;;;;;103205;1327;30186;-37
2023/01/21 04:40:52;;;;;;;2.90;1.10;;;;;;;;;;103577;1327;29361;-37
2023/01/21 04:43:26;;;;;;;3.00;1.20;;;;;;;;;;103592;1328;28246;-37
2023/01/21 04:45:59;;;;;;;2.60;1.20;;;;;;;;;;103284;1328;406521;-38
2023/01/21 04:48:32;;;;;;;3.20;1.20;;;;;;;;;;103338;1328;30571;-37
2023/01/21 04:51:06;;;;;;;2.60;1.20;;;;;;;;;;103048;1333;29030;-37
2023/01/21 04:53:36;;;;;;;2.70;1.00;;;;;;;;;;103083;1333;28377;-37
2023/01/21 04:56:08;;;;;;;2.80;1.10;;;;;;;;;;103099;1334;29829;-37
2023/01/21 04:58:40;;;;;;;2.90;1.10;;;;;;;;;;103204;1328;31655;-37
2023/01/21 05:01:10;;;;;;;2.00;0.90;;;;;;;;;;103602;1327;29133;-37
2023/01/21 05:03:40;;;;;;;1.90;1.00;;;;;;;;;;103594;1328;27918;-38
2023/01/21 05:06:11;;;;;;;2.40;0.90;;;;;;;;;;103599;1327;29713;-37
2023/01/21 05:08:41;;;;;;;2.40;1.00;;;;;;;;;;103410;1327;30512;-37
2023/01/21 05:11:16;;;;;;;2.70;1.00;;;;;;;;;;103077;1334;29240;-38
2023/01/21 05:13:46;;;;;;;3.40;1.00;;;;;;;;;;102991;1333;175906;-37
2023/01/21 05:16:18;;;;;;;2.10;0.80;;;;;;;;;;103054;1334;29907;-37
2023/01/21 05:18:53;;;;;;;2.70;1.00;;;;;;;;;;103145;1328;30377;-37
2023/01/21 05:21:28;;;;;;;2.20;0.90;;;;;;;;;;103577;1327;29186;-37
2023/01/21 05:24:05;;;;;;;2.30;0.90;;;;;;;;;;103571;1327;28010;-37
2023/01/21 05:26:35;;;;;;;2.10;0.80;;;;;;;;;;103613;1327;29695;-37
2023/01/21 05:29:09;;;;;;;1.90;0.80;;;;;;;;;;103439;1327;30224;-37
2023/01/21 05:31:43;;;;;;;2.60;0.90;;;;;;;;;;103059;1334;28925;-37
2023/01/21 05:34:18;;;;;;;2.70;0.90;;;;;;;;;;103067;1334;28310;-38
2023/01/21 05:36:57;;;;;;;2.20;0.80;;;;;;;;;;103052;1334;29848;-38
2023/01/21 05:39:36;;;;;;;1.80;0.90;;;;;;;;;;103181;1327;30494;-37
2023/01/21 05:42:16;;;;;;;2.10;0.80;;;;;;;;;;103574;1328;28911;-37
2023/01/21 05:44:55;;;;;;;2.40;0.80;;;;;;;;;;103578;1328;28068;-37
2023/01/21 05:47:37;;;;;;;1.70;0.70;;;;;;;;;;103568;1328;29926;-40
2023/01/21 05:50:13;;;;;;;1.70;0.70;;;;;;;;;;102981;1334;30337;-40
2023/01/21 05:52:48;;;;;;;2.00;0.80;;;;;;;;;;102933;1334;29018;-40
2023/01/21 05:55:28;;;;;;;1.90;0.70;;;;;;;;;;102984;1334;28276;-40
2023/01/21 05:58:07;;;;;;;1.90;0.80;;;;;;;;;;103018;1333;29949;-40
2023/01/21 06:00:37;;;;;;;1.70;0.70;;;;;;;;;;103346;1331;31063;-39
2023/01/21 06:03:12;;;;;;;1.50;0.70;;;;;;;;;;103646;1328;28888;-39
2023/01/21 06:05:45;;;;;;;1.80;0.70;;;;;;;;;;103630;1327;27908;-38
2023/01/21 06:08:19;;;;;;;2.60;0.80;;;;;;;;;;103650;1328;29610;-38
2023/01/21 06:10:59;;;;;;;2.00;0.70;;;;;;;;;;103185;1333;30253;-38
2023/01/21 06:13:34;;;;;;;2.30;0.60;;;;;;;;;;103044;1333;29244;-38
2023/01/21 06:16:05;;;;;;;1.60;0.70;;;;;;;;;;103017;1333;27977;-39
2023/01/21 06:18:37;;;;;;;1.70;0.60;;;;;;;;;;102976;1333;29719;-39
2023/01/21 06:21:12;;;;;;;1.80;0.60;;;;;;;;;;103349;1328;30305;-39
2023/01/21 06:23:46;;;;;;;1.70;0.70;;;;;;;;;;103538;1327;30365;-40
2023/01/21 06:26:19;;;;;;;1.70;0.60;;;;;;;;;;103605;1328;28195;-39
2023/01/21 06:28:55;;;;;;;1.60;0.60;;;;;;;;;;103563;1327;31232;-39
2023/01/21 06:31:31;;;;;;;1.60;0.60;;;;;;;;;;103105;1327;30428;-39
2023/01/21 06:34:04;;;;;;;1.40;0.60;;;;;;;;;;102989;1333;29021;-39
2023/01/21 06:36:41;;;;;;;1.90;0.60;;;;;;;;;;103008;1333;28100;-39
2023/01/21 06:39:11;;;;;;;1.80;0.60;;;;;;;;;;102984;1334;29864;-39
2023/01/21 06:41:44;;;;;;;1.60;0.50;;;;;;;;;;103434;1327;30291;-39
2023/01/21 06:44:19;;;;;;;1.30;0.50;;;;;;;;;;103597;1328;29084;-39
2023/01/21 06:46:52;;;;;;;2.10;0.60;;;;;;;;;;103583;1327;29372;-39
2023/01/21 06:49:35;;;;;;;1.90;0.50;;;;;;;;;;103609;1327;29630;-39
2023/01/21 06:52:09;;;;;;;1.50;0.50;;;;;;;;;;103030;1334;30093;-39
2023/01/21 06:54:42;;;;;;;1.60;0.50;;;;;;;;;;102973;1333;28989;-39
2023/01/21 06:57:19;;;;;;;1.80;0.60;;;;;;;;;;102975;1335;28084;-40
2023/01/21 06:59:55;;;;;;;1.30;0.60;;;;;;;;;;102979;1334;29644;-39
2023/01/21 07:02:25;;;;;;;1.70;0.60;;;;;;;;;;103485;1327;30580;-39
2023/01/21 07:04:57;;;;;;;1.60;0.50;;;;;;;;;;103560;1327;28793;-40
2023/01/21 07:07:31;;;;;;;1.40;0.50;;;;;;;;;;103557;1328;28166;-39
2023/01/21 07:10:01;;;;;;;1.40;0.50;;;;;;;;;;103568;1327;30040;-39
2023/01/21 07:12:33;;;;;;;2.10;0.50;;;;;;;;;;103035;1333;29885;-39
2023/01/21 07:15:08;;;;;;;1.70;0.60;;;;;;;;;;103028;1333;28760;-40
2023/01/21 07:17:38;;;;;;;1.00;0.50;;;;;;;;;;103020;1333;29413;-39
2023/01/21 07:20:12;;;;;;;1.20;0.50;;;;;;;;;;103002;1334;32138;-39
2023/01/21 07:22:44;;;;;;;1.70;0.50;;;;;;;;;;103535;1327;30212;-39
2023/01/21 07:25:14;;;;;;;1.70;0.50;;;;;;;;;;103570;1328;28913;-41
2023/01/21 07:27:47;;;;;;;2.20;0.50;;;;;;;;;;103514;1327;181271;-40
2023/01/21 07:30:21;;;;;;;1.80;0.60;;;;;;;;;;103598;1328;29936;-39
2023/01/21 07:32:51;;;;;;;1.00;0.40;;;;;;;;;;103135;1328;30361;-40
2023/01/21 07:35:21;;;;;;;0.80;0.40;;;;;;;;;;103042;1333;28843;-36
2023/01/21 07:37:51;;;;;;;1.70;0.60;;;;;;;;;;103052;1333;28162;-35
2023/01/21 07:40:24;;;;;;;1.50;0.50;;;;;;;;;;103033;1333;29809;-39
2023/01/21 07:42:57;;;;;;;1.20;0.50;;;;;;;;;;103421;1327;30332;-39
2023/01/21 07:45:27;;;;;;;1.80;0.50;;;;;;;;;;103585;1327;28871;-39
2023/01/21 07:47:57;;;;;;;0.80;0.40;;;;;;;;;;103577;1328;28031;-39
2023/01/21 07:50:30;;;;;;;1.90;0.60;;;;;;;;;;103619;1327;29792;-39
2023/01/21 07:53:03;;;;;;;0.90;0.40;;;;;;;;;;103119;1334;175861;-40
2023/01/21 07:55:36;;;;;;;1.40;0.40;;;;;;;;;;103080;1334;29739;-39
2023/01/21 07:58:13;;;;;;;0.90;0.40;;;;;;;;;;103072;1333;28177;-40
2023/01/21 08:00:49;;;;;;;1.20;0.50;;;;;;;;;;103048;1334;29485;-39
2023/01/21 08:03:24;;;;;;;1.20;0.40;;;;;;;;;;103458;1327;31785;-39
2023/01/21 08:05:53;;;;;;;1.10;0.40;;;;;;;;;;103598;1327;28934;-40
2023/01/21 08:08:26;;;;;;;1.40;0.40;;;;;;;;;;103588;1327;26834;-40
2023/01/21 08:10:57;;;;;;;1.10;0.40;;;;;;;;;;103582;1327;29533;-41
2023/01/21 08:13:32;;;;;;;1.50;0.40;;;;;;;;;;102500;1333;896842;-40
2023/01/21 08:16:03;;;;;;;1.20;0.50;;;;;;;;;;103067;1333;28978;-39
2023/01/21 08:18:33;;;;;;;1.40;0.50;;;;;;;;;;103078;1333;28168;-39
2023/01/21 08:21:04;;;;;;;1.00;0.40;;;;;;;;;;103072;1333;29176;-40
2023/01/21 08:23:41;;;;;;;1.10;0.40;;;;;;;;;;103372;1327;30371;-39
2023/01/21 08:26:12;;;;;;;1.50;0.30;;;;;;;;;;103554;1327;28856;-40
2023/01/21 08:28:42;;;;;;;0.80;0.40;;;;;;;;;;103550;1327;27992;-39
2023/01/21 08:31:17;;;;;;;1.40;0.50;;;;;;;;;;103572;1327;29725;-39
2023/01/21 08:33:49;;;;;;;2.10;0.50;;;;;;;;;;103274;1331;30148;-39
2023/01/21 08:36:20;;;;;;;1.40;0.40;;;;;;;;;;103409;1330;28820;-39
2023/01/21 08:38:57;;;;;;;1.30;0.40;;;;;;;;;;103389;1331;28225;-40
2023/01/21 08:41:32;;;;;;;1.80;0.40;;;;;;;;;;103361;1331;29892;-39
2023/01/21 08:44:06;;;;;;;1.40;0.50;;;;;;;;;;103111;1332;30083;-40
2023/01/21 08:46:36;;;;;;;1.30;0.40;;;;;;;;;;103077;1332;28727;-39
2023/01/21 08:49:06;;;;;;;2.10;0.50;;;;;;;;;;103021;1331;28225;-39
2023/01/21 08:51:44;;;;;;;1.70;0.50;;;;;;;;;;103062;1331;29601;-40
2023/01/21 08:54:17;;;;;;;1.90;0.40;;;;;;;;;;103382;1327;30369;-40
2023/01/21 08:56:53;;;;;;;2.00;0.40;;;;;;;;;;103544;1327;29025;-38
2023/01/21 08:59:27;;;;;;;1.80;0.50;;;;;;;;;;103420;1327;29415;-41
2023/01/21 09:01:58;;;;;;;1.20;0.40;;;;;;;;;;103515;1327;29691;-39
2023/01/21 09:04:31;;;;;;;1.80;0.50;;;;;;;;;;103142;1331;31412;-39
2023/01/21 09:07:04;;;;;;;1.40;0.40;;;;;;;;;;103108;1331;28913;-38
2023/01/21 09:09:38;;;;;;;1.60;0.60;;;;;;;;;;103098;1331;28190;-38
2023/01/21 09:12:12;;;;;;;1.50;0.50;;;;;;;;;;103168;1331;29509;-38
2023/01/21 09:14:42;;;;;;;1.70;0.50;;;;;;;;;;103440;1327;30592;-37
2023/01/21 09:17:15;;;;;;;1.50;0.50;;;;;;;;;;103541;1327;30063;-38
2023/01/21 09:19:48;;;;;;;1.40;0.50;;;;;;;;;;103531;1327;28164;-37
2023/01/21 09:22:23;;;;;;;1.70;0.50;;;;;;;;;;103325;1327;175806;-36
2023/01/21 09:24:59;;;;;;;1.40;0.40;;;;;;;;;;102493;1327;894356;-36
2023/01/21 09:27:31;;;;;;;1.30;0.60;;;;;;;;;;102957;1331;29037;-35
2023/01/21 09:30:02;;;;;;;2.00;0.60;;;;;;;;;;103132;1331;28055;-35
2023/01/21 09:32:33;;;;;;;2.40;0.60;;;;;;;;;;103020;1331;29895;-35
2023/01/21 09:35:09;;;;;;;1.70;0.60;;;;;;;;;;103420;1327;30034;-35
2023/01/21 09:37:41;;;;;;;2.30;0.70;;;;;;;;;;103575;1328;30173;-35
2023/01/21 09:40:16;;;;;;;3.10;0.70;;;;;;;;;;103450;1327;175387;-36
2023/01/21 09:42:47;;;;;;;2.60;0.80;;;;;;;;;;103601;1327;30999;-35
2023/01/21 09:45:22;;;;;;;2.30;0.70;;;;;;;;;;103160;1327;30389;-35
2023/01/21 09:47:56;;;;;;;3.00;0.90;;;;;;;;;;103212;1331;29004;-36
2023/01/21 09:50:26;;;;;;;3.40;0.90;;;;;;;;;;103146;1331;28023;-35
2023/01/21 09:53:04;;;;;;;3.30;0.90;;;;;;;;;;103123;1331;29521;-36
2023/01/21 09:55:41;;;;;;;3.00;0.80;;;;;;;;;;103598;1328;30038;-36
2023/01/21 09:58:23;;;;;;;2.60;0.90;;;;;;;;;;103774;1327;28657;-36
2023/01/21 10:00:57;;;;;;;3.10;1.00;;;;;;;;;;103784;1328;28165;-35
2023/01/21 10:03:36;;;;;;;3.70;1.00;;;;;;;;;;103540;1328;175789;-36
2023/01/21 10:06:28;;;;;;;2.80;1.10;;;;;;;;;;103101;1331;30303;-37
2023/01/21 10:09:15;;;;;;;;;;;;;;;;;;103136;1343;28661;-36
2023/01/21 10:12:10;;;;;;;2.70;1.00;;;;;;;;;;103083;1331;28038;-38
2023/01/21 10:15:18;;;;;;;2.90;1.00;;;;;;;;;;103247;1328;29667;-36
2023/01/21 10:17:59;;;;;;;2.80;1.20;;;;;;;;;;103770;1326;30285;-38
2023/01/21 10:20:31;;;;;;;2.80;1.00;;;;;;;;;;103769;1324;28604;-37
2023/01/21 10:23:05;;;;;;;2.50;0.90;;;;;;;;;;103760;1327;28205;-38
2023/01/21 10:25:38;;;;;;;2.70;0.90;;;;;;;;;;103249;1333;29780;-35
2023/01/21 10:28:22;;;;;;;2.40;0.90;;;;;;;;;;103129;1333;30213;-35
2023/01/21 10:30:53;;;;;;;3.20;1.10;;;;;;;;;;103487;1324;28820;-35
2023/01/21 10:33:30;;;;;;;2.90;0.90;;;;;;;;;;103227;1330;28171;-36
2023/01/21 10:36:27;;;;;;;3.50;1.10;;;;;;;;;;103754;1327;29795;-36
2023/01/21 10:39:08;;;;;;;2.60;1.20;;;;;;;;;;103760;1327;30031;-38
2023/01/21 10:41:54;;;;;;;;;;;;;;;;;;103673;1328;175753;-37
2023/01/21 10:44:34;;;;;;;2.50;1.10;;;;;;;;;;103666;1327;27973;-37
2023/01/21 10:47:26;;;;;;;2.70;1.00;;;;;;;;;;103720;1328;36727;-37
2023/01/21 10:50:04;;;;;;;3.70;1.10;;;;;;;;;;103731;1325;30197;-36
2023/01/21 10:52:43;;;;;;;2.50;1.00;;;;;;;;;;103733;1328;28850;-37
2023/01/21 10:55:40;;;;;;;3.30;1.10;;;;;;;;;;103642;1327;27876;-35
2023/01/21 10:58:26;;;;;;;2.80;1.00;;;;;;;;;;103380;1329;30889;-37
2023/01/21 11:01:05;;;;;;;2.90;1.10;;;;;;;;;;103263;1330;30501;-36
2023/01/21 11:03:46;;;;;;;3.80;1.10;;;;;;;;;;103279;1330;28856;-36
2023/01/21 11:06:21;;;;;;;2.60;1.00;;;;;;;;;;104218;1326;28159;-36
2023/01/21 11:09:01;;;;;;;2.80;1.10;;;;;;;;;;103791;1326;29746;-36
2023/01/21 11:11:34;;;;;;;2.50;0.90;;;;;;;;;;103778;1325;30199;-36
2023/01/21 11:14:04;;;;;;;3.70;1.20;;;;;;;;;;103728;1325;30229;-36
2023/01/21 11:16:45;;;;;;;3.00;1.20;;;;;;;;;;103754;1325;28102;-35
2023/01/21 11:19:19;;;;;;;2.50;1.00;;;;;;;;;;103750;1328;31287;-36
2023/01/21 11:22:03;;;;;;;3.90;1.10;;;;;;;;;;103780;1326;31508;-36
2023/01/21 11:24:44;;;;;;;3.00;1.10;;;;;;;;;;103439;1328;30226;-35
2023/01/21 11:27:22;;;;;;;2.50;1.00;;;;;;;;;;103780;1328;27951;-35
2023/01/21 11:29:52;;;;;;;2.40;1.00;;;;;;;;;;103790;1327;29457;-36
2023/01/21 11:32:24;;;;;;;2.70;1.20;;;;;;;;;;103793;1327;30159;-35
2023/01/21 11:35:04;;;;;;;2.90;1.10;;;;;;;;;;103802;1328;29041;-35
2023/01/21 11:37:35;;;;;;;3.30;1.10;;;;;;;;;;103446;1331;27847;-35
2023/01/21 11:40:14;;;;;;;3.20;1.10;;;;;;;;;;103362;1331;29899;-38
2023/01/21 11:42:52;;;;;;;3.50;1.20;;;;;;;;;;103353;1331;30293;-38
2023/01/21 11:45:30;;;;;;;2.80;1.20;;;;;;;;;;103343;1331;28877;-36
2023/01/21 11:48:15;;;;;;;2.50;1.10;;;;;;;;;;103696;1327;28045;-36
2023/01/21 11:50:46;;;;;;;3.30;1.20;;;;;;;;;;103152;1327;902794;-37
2023/01/21 11:53:21;;;;;;;3.40;1.30;;;;;;;;;;103796;1326;31683;-36
2023/01/21 11:55:55;;;;;;;4.30;1.30;;;;;;;;;;103563;1327;28875;-36
2023/01/21 11:58:30;;;;;;;3.00;1.30;;;;;;;;;;103741;1327;27955;-36
2023/01/21 12:01:03;;;;;;;3.40;1.30;;;;;;;;;;103758;1327;29450;-37
2023/01/21 12:03:40;;;;;;;3.20;1.20;;;;;;;;;;103650;1327;175708;-37
2023/01/21 12:06:18;;;;;;;2.50;1.20;;;;;;;;;;103761;1327;31287;-35
2023/01/21 12:08:51;;;;;;;3.10;1.30;;;;;;;;;;103740;1328;33983;-35
2023/01/21 12:11:24;;;;;;;3.40;1.30;;;;;;;;;;103411;1327;29472;-36
2023/01/21 12:14:06;;;;;;;3.30;1.30;;;;;;;;;;103750;1327;30001;-36
2023/01/21 12:16:39;;;;;;;3.30;1.50;;;;;;;;;;103769;1328;28711;-36
2023/01/21 12:19:51;;;;;;;3.50;1.50;;;;;;;;;;103746;1326;27880;-36
2023/01/21 12:22:38;;;;;;;3.10;1.30;;;;;;;;;;103769;1331;29509;-36
2023/01/21 12:25:26;;;;;;;3.20;1.50;;;;;;;;;;103788;1326;30382;-36
2023/01/21 12:28:34;;;;;;;3.30;1.40;;;;;;;;;;103744;1328;28966;-37
2023/01/21 12:31:23;;;;;;;3.50;1.60;;;;;;;;;;103752;1327;27861;-36
2023/01/21 12:34:03;;;;;;;3.60;1.60;;;;;;;;;;103808;1328;29469;-37
2023/01/21 12:36:41;;;;;;;4.00;1.80;;;;;;;;;;103776;1327;30407;-37
2023/01/21 12:39:21;;;;;;;4.00;1.70;;;;;;;;;;103609;1328;176401;-37
2023/01/21 12:42:06;;;;;;;4.50;1.90;;;;;;;;;;103755;1328;28121;-37
2023/01/21 12:44:47;;;;;;;5.80;2.80;;;;;;;;;;103785;1326;30921;-37
2023/01/21 12:47:30;;;;;;;11.10;6.20;;;;;;;;;;103472;1326;431598;-38
2023/01/21 12:50:16;;;;;;;10.60;6.40;;;;;;;;;;103410;1328;36559;-42
2023/01/21 12:53:01;;;;;;;9.10;6.10;;;;;;;;;;103533;1327;39607;-44
2023/01/21 12:55:54;;;;;;;10.50;6.10;;;;;;;;;;103393;1327;40968;-36
2023/01/21 12:58:30;;;;;;;10.40;5.80;;;;;;;;;;103514;1327;30331;-37
2023/01/21 13:01:10;;;;;;;9.00;5.70;;;;;;;;;;103135;1331;29300;-36
2023/01/21 13:03:57;;;;;;;8.80;5.50;;;;;;;;;;102921;1334;28091;-37
2023/01/21 13:06:35;;;;;;;8.80;5.60;;;;;;;;;;102756;1334;29791;-36
2023/01/21 13:09:35;;;;;;;8.50;5.30;;;;;;;;;;103203;1327;175419;-37
2023/01/21 13:12:16;;;;;;;8.20;5.30;;;;;;;;;;103514;1327;28876;-37
2023/01/21 13:15:00;;;;;;;7.80;4.80;;;;;;;;;;104306;1327;28005;-37
2023/01/21 13:17:38;;;;;;;7.50;5.20;;;;;;;;;;103535;1327;29707;-37
2023/01/21 13:20:19;;;;;;;9.00;5.00;;;;;;;;;;103508;1327;30170;-38
2023/01/21 13:23:04;;;;;;;9.30;5.30;;;;;;;;;;103540;1327;28934;-38
2023/01/21 13:25:44;;;;;;;10.00;6.70;;;;;;;;;;103536;1335;28120;-39
2023/01/21 13:28:32;;;;;;;10.40;7.00;;;;;;;;;;103548;1327;29673;-39
2023/01/21 13:31:14;;;;;;;9.90;7.20;;;;;;;;;;103961;1328;36859;-39
2023/01/21 13:33:56;;;;;;;11.00;7.20;;;;;;;;;;103516;1327;30285;-38
2023/01/21 13:36:38;;;;;;;9.10;6.90;;;;;;;;;;103539;1328;28027;-39
2023/01/21 13:39:23;;;;;;;10.10;7.00;;;;;;;;;;103493;1327;29683;-39
2023/01/21 13:42:18;;;;;;;9.30;7.00;;;;;;;;;;103409;1327;30239;-38
2023/01/21 13:45:09;;;;;;;9.80;7.00;;;;;;;;;;103515;1327;28832;-39
2023/01/21 13:48:05;;;;;;;9.00;6.50;;;;;;;;;;103553;1327;28431;-39
2023/01/21 13:50:57;;;;;;;10.00;7.20;;;;;;;;;;103509;1327;29925;-39
2023/01/21 13:54:02;;;;;;;10.00;7.10;;;;;;;;;;103569;1327;30933;-38
2023/01/21 13:56:54;;;;;;;9.50;6.50;;;;;;;;;;103349;1327;30339;-40
2023/01/21 13:59:33;;;;;;;10.30;6.80;;;;;;;;;;103444;1328;27832;-39
2023/01/21 14:02:08;;;;;;;9.60;6.60;;;;;;;;;;103091;1331;29460;-38
2023/01/21 14:04:48;;;;;;;10.80;6.60;;;;;;;;;;103113;1331;30458;-38
2023/01/21 14:07:28;;;;;;;10.10;6.50;;;;;;;;;;103103;1331;28941;-39
2023/01/21 14:10:05;;;;;;;10.30;6.20;;;;;;;;;;103211;1327;27994;-39
2023/01/21 14:13:17;;;;;;;8.60;5.80;;;;;;;;;;103529;1327;29569;-39
2023/01/21 14:16:20;;;;;;;8.90;5.80;;;;;;;;;;103487;1327;30464;-38
2023/01/21 14:19:12;;;;;;;7.80;5.90;;;;;;;;;;103438;1328;175464;-39
2023/01/21 14:21:57;;;;;;;8.10;5.60;;;;;;;;;;103131;1331;28077;-39
2023/01/21 14:24:46;;;;;;;8.20;5.50;;;;;;;;;;103170;1331;29650;-38
2023/01/21 14:27:26;;;;;;;8.50;5.70;;;;;;;;;;103099;1331;30745;-39
2023/01/21 14:30:07;;;;;;;8.60;5.70;;;;;;;;;;103116;1327;29082;-39
2023/01/21 14:32:42;;;;;;;8.20;5.60;;;;;;;;;;103588;1327;27847;-39
2023/01/21 14:35:23;;;;;;;8.30;5.40;;;;;;;;;;103590;1327;29702;-39
2023/01/21 14:38:10;;;;;;;8.20;5.50;;;;;;;;;;103407;1327;30096;-39
2023/01/21 14:40:49;;;;;;;7.60;5.30;;;;;;;;;;103548;1327;28833;-39
2023/01/21 14:43:48;;;;;;;8.80;5.90;;;;;;;;;;103578;1327;27841;-39
2023/01/21 14:46:32;;;;;;;9.50;5.80;;;;;;;;;;103621;1327;29678;-39
2023/01/21 14:49:06;;;;;;;8.70;5.70;;;;;;;;;;103642;1327;30386;-39
2023/01/21 14:51:41;;;;;;;10.10;5.90;;;;;;;;;;103530;1328;29054;-39
2023/01/21 14:54:14;;;;;;;9.00;6.10;;;;;;;;;;103433;1327;175803;-39
2023/01/21 14:56:55;;;;;;;9.40;5.70;;;;;;;;;;103586;1327;29756;-41
2023/01/21 14:59:36;;;;;;;8.90;5.70;;;;;;;;;;103627;1327;30999;-39
2023/01/21 15:02:28;;;;;;;8.20;5.70;;;;;;;;;;103551;1327;28844;-39
2023/01/21 15:05:01;;;;;;;8.60;5.60;;;;;;;;;;103611;1327;28151;-39
2023/01/21 15:07:37;;;;;;;8.10;5.50;;;;;;;;;;103573;1327;29709;-39
2023/01/21 15:10:18;;;;;;;8.30;5.70;;;;;;;;;;103580;1327;30153;-39
2023/01/21 15:12:54;;;;;;;8.10;5.10;;;;;;;;;;103515;1327;28949;-39
2023/01/21 15:15:33;;;;;;;8.90;5.40;;;;;;;;;;103537;1327;28260;-38
2023/01/21 15:18:23;;;;;;;8.50;5.70;;;;;;;;;;103585;1327;29764;-39
2023/01/21 15:20:56;;;;;;;7.60;4.80;;;;;;;;;;103590;1327;30127;-39
2023/01/21 15:23:42;;;;;;;8.20;5.30;;;;;;;;;;103550;1327;28723;-39
2023/01/21 15:26:31;;;;;;;8.10;4.90;;;;;;;;;;103562;1327;28085;-39
2023/01/21 15:29:32;;;;;;;8.50;5.00;;;;;;;;;;103549;1327;29836;-39
2023/01/21 15:32:29;;;;;;;8.00;4.80;;;;;;;;;;103533;1327;30079;-39
2023/01/21 15:35:03;;;;;;;7.10;4.80;;;;;;;;;;103540;1327;28733;-38